createdAt,value
2022-12-14T00:01:29.655Z,7.43
2022-12-14T00:03:58.726Z,6.80
2022-12-14T00:06:28.767Z,6.63
2022-12-14T00:08:58.704Z,7.35
2022-12-14T00:11:26.949Z,6.68
2022-12-14T00:13:56.433Z,6.70
2022-12-14T00:16:25.738Z,7.38
2022-12-14T00:18:55.264Z,7.50
2022-12-14T00:21:25.183Z,6.68
2022-12-14T00:23:54.105Z,6.47
2022-12-14T00:26:24.162Z,6.63
2022-12-14T00:28:53.417Z,6.25
2022-12-14T00:31:22.006Z,6.55
2022-12-14T00:33:50.368Z,6.45
2022-12-14T00:36:18.346Z,6.28
2022-12-14T00:38:47.479Z,6.50
2022-12-14T00:41:15.144Z,6.97
2022-12-14T00:43:42.830Z,7.05
2022-12-14T00:46:10.657Z,7.05
2022-12-14T00:48:38.419Z,7.07
2022-12-14T00:51:06.335Z,6.60
2022-12-14T00:53:34.015Z,6.50
2022-12-14T00:56:08.094Z,7.38
2022-12-14T00:58:36.115Z,6.72
2022-12-14T01:01:06.280Z,6.65
2022-12-14T01:03:34.811Z,7.43
2022-12-14T01:06:03.189Z,6.95
2022-12-14T01:08:35.591Z,6.65
2022-12-14T01:11:09.754Z,7.20
2022-12-14T01:13:38.941Z,6.50
2022-12-14T01:16:08.090Z,5.85
2022-12-14T01:18:36.609Z,7.57
2022-12-14T01:21:11.931Z,6.57
2022-12-14T01:23:39.880Z,6.55
2022-12-14T01:26:09.015Z,6.57
2022-12-14T01:28:36.957Z,7.13
2022-12-14T01:31:10.371Z,6.95
2022-12-14T01:33:38.702Z,6.60
2022-12-14T01:36:07.713Z,7.13
2022-12-14T01:38:35.603Z,6.93
2022-12-14T01:41:03.691Z,6.28
2022-12-14T01:46:33.784Z,6.55
2022-12-14T01:49:06.422Z,5.78
2022-12-14T01:51:37.065Z,6.68
2022-12-14T01:54:08.767Z,6.53
2022-12-14T01:56:38.274Z,6.05
2022-12-14T01:59:12.506Z,6.63
2022-12-14T02:01:42.374Z,6.05
2022-12-14T02:04:12.310Z,6.38
2022-12-14T02:06:44.044Z,6.75
2022-12-14T02:09:17.472Z,5.88
2022-12-14T02:11:52.927Z,6.70
2022-12-14T02:14:20.563Z,6.80
2022-12-14T02:16:51.534Z,7.07
2022-12-14T02:19:19.217Z,6.22
2022-12-14T02:22:04.827Z,6.53
2022-12-14T02:25:02.689Z,6.93
2022-12-14T02:27:51.852Z,6.47
2022-12-14T02:30:22.772Z,6.85
2022-12-14T02:33:16.489Z,5.72
2022-12-14T02:35:49.213Z,6.38
2022-12-14T02:38:29.074Z,6.20
2022-12-14T02:41:05.657Z,6.38
2022-12-14T02:43:40.028Z,6.03
2022-12-14T02:46:19.867Z,6.30
2022-12-14T02:48:55.055Z,5.80
2022-12-14T02:51:27.873Z,6.00
2022-12-14T02:54:01.796Z,6.10
2022-12-14T02:56:36.976Z,6.28
2022-12-14T02:59:09.401Z,6.00
2022-12-14T03:01:40.985Z,6.78
2022-12-14T03:04:08.838Z,5.55
2022-12-14T03:06:36.628Z,5.90
2022-12-14T03:09:08.967Z,6.00
2022-12-14T03:11:42.726Z,5.97
2022-12-14T03:14:16.662Z,6.55
2022-12-14T03:16:49.841Z,6.22
2022-12-14T03:19:22.546Z,6.75
2022-12-14T03:21:55.427Z,6.25
2022-12-14T03:24:26.986Z,5.97
2022-12-14T03:26:58.209Z,5.75
2022-12-14T03:29:29.265Z,6.13
2022-12-14T03:32:01.923Z,6.55
2022-12-14T03:34:34.130Z,6.18
2022-12-14T03:37:10.623Z,5.93
2022-12-14T03:39:39.808Z,5.50
2022-12-14T03:42:17.148Z,5.80
2022-12-14T03:44:50.168Z,5.35
2022-12-14T03:47:45.373Z,5.75
2022-12-14T03:50:17.630Z,6.00
2022-12-14T03:52:54.507Z,5.57
2022-12-14T03:55:28.226Z,5.72
2022-12-14T03:58:18.590Z,5.70
2022-12-14T04:00:52.530Z,5.30
2022-12-14T04:03:30.374Z,5.03
2022-12-14T04:06:03.313Z,5.43
2022-12-14T04:08:39.171Z,5.82
2022-12-14T04:11:27.336Z,5.50
2022-12-14T04:14:18.792Z,6.22
2022-12-14T04:17:06.917Z,5.82
2022-12-14T04:19:42.762Z,5.57
2022-12-14T04:22:15.559Z,5.88
2022-12-14T04:25:05.239Z,5.85
2022-12-14T04:27:38.338Z,5.53
2022-12-14T04:30:07.882Z,5.30
2022-12-14T04:32:40.139Z,6.00
2022-12-14T04:35:13.258Z,5.50
2022-12-14T04:37:45.363Z,5.57
2022-12-14T04:40:20.563Z,5.10
2022-12-14T04:42:53.728Z,5.45
2022-12-14T04:45:26.582Z,5.85
2022-12-14T04:48:00.968Z,5.43
2022-12-14T04:50:35.773Z,5.75
2022-12-14T04:53:12.053Z,5.90
2022-12-14T04:55:45.440Z,5.10
2022-12-14T05:00:59.411Z,4.75
2022-12-14T05:03:31.332Z,5.53
2022-12-14T05:06:10.001Z,5.68
2022-12-14T05:08:53.302Z,5.38
2022-12-14T05:11:52.721Z,5.22
2022-12-14T05:14:21.130Z,5.68
2022-12-14T05:16:50.280Z,5.40
2022-12-14T05:19:17.960Z,5.00
2022-12-14T05:21:49.563Z,6.10
2022-12-14T05:24:18.194Z,5.60
2022-12-14T05:26:46.037Z,5.57
2022-12-14T05:29:15.016Z,5.70
2022-12-14T05:31:42.768Z,5.78
2022-12-14T05:34:17.033Z,5.95
2022-12-14T05:36:44.701Z,4.70
2022-12-14T05:39:13.891Z,5.85
2022-12-14T05:41:41.548Z,5.72
2022-12-14T05:44:09.455Z,5.50
2022-12-14T05:46:37.271Z,5.63
2022-12-14T05:49:05.032Z,5.38
2022-12-14T05:51:32.915Z,5.70
2022-12-14T05:54:00.610Z,5.78
2022-12-14T05:56:29.837Z,5.75
2022-12-14T05:58:57.677Z,5.05
2022-12-14T06:01:25.428Z,5.10
2022-12-14T06:03:53.487Z,5.45
2022-12-14T06:06:21.222Z,5.05
2022-12-14T06:08:49.246Z,5.53
2022-12-14T06:11:18.992Z,5.15
2022-12-14T06:13:48.601Z,5.20
2022-12-14T06:16:18.786Z,5.03
2022-12-14T06:18:48.488Z,4.57
2022-12-14T06:21:17.984Z,4.88
2022-12-14T06:23:46.150Z,5.50
2022-12-14T06:26:14.940Z,5.80
2022-12-14T06:28:43.114Z,4.78
2022-12-14T06:31:16.776Z,5.72
2022-12-14T06:33:45.138Z,5.72
2022-12-14T06:36:18.893Z,5.50
2022-12-14T06:38:46.772Z,5.05
2022-12-14T06:41:14.782Z,5.63
2022-12-14T06:43:42.711Z,5.82
2022-12-14T06:46:15.012Z,5.03
2022-12-14T06:48:45.449Z,5.55
2022-12-14T06:51:13.218Z,5.28
2022-12-14T06:53:40.893Z,5.82
2022-12-14T06:56:09.808Z,5.55
2022-12-14T06:58:37.856Z,5.13
2022-12-14T07:01:07.479Z,5.95
2022-12-14T07:03:36.021Z,5.47
2022-12-14T07:06:06.063Z,5.28
2022-12-14T07:08:36.303Z,5.10
2022-12-14T07:11:05.127Z,5.70
2022-12-14T07:13:32.897Z,5.75
2022-12-14T07:16:01.467Z,6.65
2022-12-14T07:18:30.429Z,5.15
2022-12-14T07:20:58.992Z,6.10
2022-12-14T07:23:29.944Z,6.05
2022-12-14T07:26:02.463Z,5.20
2022-12-14T07:28:30.992Z,6.10
2022-12-14T07:31:00.187Z,5.60
2022-12-14T07:33:29.694Z,5.68
2022-12-14T07:36:03.771Z,4.72
2022-12-14T07:38:33.491Z,5.65
2022-12-14T07:41:05.583Z,6.15
2022-12-14T07:43:34.373Z,5.80
2022-12-14T07:46:03.193Z,5.57
2022-12-14T07:48:31.815Z,6.38
2022-12-14T07:51:03.595Z,5.53
2022-12-14T07:53:32.771Z,6.22
2022-12-14T07:56:04.817Z,5.88
2022-12-14T07:58:32.777Z,5.68
2022-12-14T08:01:13.516Z,5.70
2022-12-14T08:03:42.308Z,6.10
2022-12-14T08:06:11.669Z,5.88
2022-12-14T08:08:41.086Z,5.72
2022-12-14T08:11:09.288Z,5.90
2022-12-14T08:13:38.813Z,5.72
2022-12-14T08:16:08.491Z,5.97
2022-12-14T08:18:36.863Z,6.07
2022-12-14T08:21:06.176Z,5.97
2022-12-14T08:23:34.658Z,5.95
2022-12-14T08:26:05.680Z,5.65
2022-12-14T08:28:35.029Z,5.70
2022-12-14T08:31:05.964Z,6.15
2022-12-14T08:33:34.079Z,5.35
2022-12-14T08:36:06.949Z,5.50
2022-12-14T08:38:34.697Z,5.82
2022-12-14T08:41:08.369Z,5.50
2022-12-14T08:43:36.654Z,6.75
2022-12-14T08:46:06.304Z,6.18
2022-12-14T08:48:34.240Z,6.32
2022-12-14T08:51:03.525Z,6.13
2022-12-14T08:53:31.896Z,6.47
2022-12-14T08:56:00.331Z,6.18
2022-12-14T08:58:29.392Z,6.20
2022-12-14T09:01:05.019Z,6.63
2022-12-14T09:03:33.524Z,6.00
2022-12-14T09:06:05.271Z,6.68
2022-12-14T09:08:33.112Z,6.55
2022-12-14T09:11:01.435Z,7.13
2022-12-14T09:13:30.769Z,6.82
2022-12-14T09:16:00.425Z,7.18
2022-12-14T09:18:29.524Z,6.78
2022-12-14T09:20:58.506Z,8.35
2022-12-14T09:23:28.917Z,6.57
2022-12-14T09:26:01.363Z,6.13
2022-12-14T09:28:31.387Z,7.60
2022-12-14T09:31:01.163Z,7.22
2022-12-14T09:33:30.907Z,7.03
2022-12-14T09:36:03.554Z,7.75
2022-12-14T09:38:32.418Z,5.55
2022-12-14T09:41:05.921Z,7.38
2022-12-14T09:43:41.406Z,6.70
2022-12-14T09:46:22.377Z,6.93
2022-12-14T09:48:50.778Z,7.75
2022-12-14T09:51:22.140Z,6.70
2022-12-14T09:53:59.297Z,6.63
2022-12-14T09:56:29.956Z,7.53
2022-12-14T09:59:02.029Z,8.30
2022-12-14T10:02:29.667Z,6.70
2022-12-14T10:05:04.509Z,6.72
2022-12-14T10:07:41.422Z,6.55
2022-12-14T10:10:20.609Z,7.65
2022-12-14T10:12:58.534Z,7.13
2022-12-14T10:15:32.848Z,6.30
2022-12-14T10:18:59.189Z,7.30
2022-12-14T10:21:32.398Z,6.80
2022-12-14T10:24:03.717Z,7.95
2022-12-14T10:26:36.740Z,7.20
2022-12-14T10:29:08.913Z,6.25
2022-12-14T10:31:45.719Z,7.40
2022-12-14T10:34:19.513Z,7.30
2022-12-14T10:36:55.412Z,7.18
2022-12-14T10:39:34.256Z,6.35
2022-12-14T10:42:10.969Z,5.95
2022-12-14T10:44:49.517Z,6.75
2022-12-14T10:47:26.222Z,6.70
2022-12-14T10:50:01.033Z,6.93
2022-12-14T10:52:36.388Z,6.72
2022-12-14T10:55:07.953Z,6.72
2022-12-14T10:57:35.604Z,6.43
2022-12-14T11:00:09.610Z,6.50
2022-12-14T11:02:41.801Z,6.78
2022-12-14T11:05:24.487Z,7.13
2022-12-14T11:07:52.357Z,6.82
2022-12-14T11:10:23.131Z,7.00
2022-12-14T11:13:02.403Z,6.95
2022-12-14T11:15:34.732Z,6.30
2022-12-14T11:18:28.634Z,6.95
2022-12-14T11:20:59.252Z,7.00
2022-12-14T11:23:28.937Z,6.32
2022-12-14T11:25:59.295Z,6.57
2022-12-14T11:28:37.162Z,6.65
2022-12-14T11:31:08.254Z,6.03
2022-12-14T11:33:40.269Z,7.18
2022-12-14T11:36:09.863Z,6.25
2022-12-14T11:38:37.878Z,7.90
2022-12-14T11:41:11.101Z,6.93
2022-12-14T11:43:39.813Z,6.60
2022-12-14T11:46:07.904Z,6.65
2022-12-14T11:48:39.281Z,6.82
2022-12-14T11:51:12.086Z,7.50
2022-12-14T11:53:40.370Z,7.00
2022-12-14T11:56:12.192Z,6.97
2022-12-14T11:58:47.789Z,7.50
2022-12-14T12:01:18.458Z,8.05
2022-12-14T12:03:50.403Z,6.85
2022-12-14T12:06:22.658Z,7.05
2022-12-14T12:08:55.837Z,6.85
2022-12-14T12:11:27.547Z,6.78
2022-12-14T12:14:00.760Z,6.85
2022-12-14T12:16:32.692Z,6.85
2022-12-14T12:19:11.638Z,7.30
2022-12-14T12:21:42.554Z,7.38
2022-12-14T12:24:17.704Z,7.05
2022-12-14T12:26:50.745Z,6.88
2022-12-14T12:29:24.388Z,7.35
2022-12-14T12:31:56.788Z,7.10
2022-12-14T12:34:29.302Z,7.32
2022-12-14T12:37:25.907Z,6.93
2022-12-14T12:39:53.544Z,6.28
2022-12-14T12:42:27.596Z,6.93
2022-12-14T12:45:01.520Z,7.75
2022-12-14T12:47:46.107Z,5.88
2022-12-14T12:50:18.574Z,8.35
2022-12-14T12:53:02.420Z,6.47
2022-12-14T12:55:36.415Z,6.40
2022-12-14T12:58:09.626Z,7.43
2022-12-14T13:00:39.120Z,6.38
2022-12-14T13:03:13.348Z,6.28
2022-12-14T13:05:46.655Z,6.88
2022-12-14T13:08:23.367Z,5.97
2022-12-14T13:13:45.493Z,7.13
2022-12-14T13:16:22.962Z,6.80
2022-12-14T13:19:08.899Z,6.65
2022-12-14T13:21:51.544Z,6.45
2022-12-14T13:24:21.501Z,6.50
2022-12-14T13:27:15.338Z,6.15
2022-12-14T13:30:03.516Z,7.43
2022-12-14T13:32:44.710Z,6.55
2022-12-14T13:35:23.611Z,6.50
2022-12-14T13:38:08.190Z,6.90
2022-12-14T13:41:06.227Z,6.07
2022-12-14T13:43:52.757Z,6.60
2022-12-14T13:46:23.804Z,6.65
2022-12-14T13:48:54.376Z,6.55
2022-12-14T13:51:29.369Z,6.55
2022-12-14T13:54:00.541Z,6.28
2022-12-14T13:56:33.486Z,6.15
2022-12-14T13:59:04.707Z,6.28
2022-12-14T14:01:59.556Z,6.00
2022-12-14T14:04:29.664Z,6.38
2022-12-14T14:07:18.245Z,6.03
2022-12-14T14:10:01.090Z,5.85
2022-12-14T14:12:41.699Z,6.72
2022-12-14T14:15:31.471Z,5.82
2022-12-14T14:18:07.965Z,6.40
2022-12-14T14:20:40.713Z,5.97
2022-12-14T14:23:38.119Z,6.85
2022-12-14T14:26:30.745Z,6.88
2022-12-14T14:29:23.777Z,6.82
2022-12-14T14:31:55.484Z,6.75
2022-12-14T14:34:30.063Z,8.13
2022-12-14T14:36:57.981Z,6.80
2022-12-14T14:39:56.171Z,7.03
2022-12-14T14:42:32.817Z,6.38
2022-12-14T14:45:03.746Z,7.50
2022-12-14T14:47:34.570Z,6.43
2022-12-14T14:50:05.651Z,6.20
2022-12-14T14:53:00.492Z,7.35
2022-12-14T14:55:53.736Z,7.13
2022-12-14T14:58:33.425Z,6.40
2022-12-14T15:01:25.294Z,6.78
2022-12-14T15:03:57.130Z,7.22
2022-12-14T15:06:29.093Z,5.97
2022-12-14T15:09:16.410Z,6.93
2022-12-14T15:11:47.185Z,5.93
2022-12-14T15:14:31.157Z,6.65
2022-12-14T15:16:58.988Z,6.25
2022-12-14T15:19:33.315Z,6.68
2022-12-14T15:22:05.257Z,6.95
2022-12-14T15:24:38.539Z,6.72
2022-12-14T15:27:12.845Z,6.97
2022-12-14T15:29:46.416Z,6.35
2022-12-14T15:32:19.182Z,6.68
2022-12-14T15:34:52.991Z,6.13
2022-12-14T15:37:27.891Z,7.43
2022-12-14T15:40:05.008Z,6.35
2022-12-14T15:42:32.695Z,6.97
2022-12-14T15:45:10.555Z,6.50
2022-12-14T15:47:38.397Z,7.28
2022-12-14T15:50:16.873Z,7.57
2022-12-14T15:52:46.039Z,7.18
2022-12-14T15:55:32.838Z,6.63
2022-12-14T15:58:08.491Z,6.82
2022-12-14T16:00:43.609Z,6.82
2022-12-14T16:03:22.516Z,8.05
2022-12-14T16:05:50.470Z,15.02
2022-12-14T16:08:18.484Z,11.60
2022-12-14T16:10:50.319Z,11.23
2022-12-14T16:13:22.653Z,11.13
2022-12-14T16:15:52.185Z,10.43
2022-12-14T16:18:21.554Z,11.05
2022-12-14T16:20:57.437Z,10.15
2022-12-14T16:23:30.128Z,8.40
2022-12-14T16:26:00.303Z,9.52
2022-12-14T16:28:32.135Z,9.27
2022-12-14T16:31:04.222Z,8.82
2022-12-14T16:33:34.715Z,10.63
2022-12-14T16:36:06.908Z,10.63
2022-12-14T16:38:42.068Z,10.43
2022-12-14T16:41:10.852Z,10.45
2022-12-14T16:43:40.819Z,11.07
2022-12-14T16:46:18.529Z,11.95
2022-12-14T16:49:08.441Z,12.32
2022-12-14T16:54:30.765Z,13.40
2022-12-14T16:57:02.165Z,14.50
2022-12-14T16:59:39.516Z,12.65
2022-12-14T17:02:25.506Z,13.05
2022-12-14T17:04:53.705Z,13.05
2022-12-14T17:07:24.993Z,12.00
2022-12-14T17:09:54.393Z,12.27
2022-12-14T17:12:25.430Z,12.00
2022-12-14T17:14:54.061Z,11.88
2022-12-14T17:17:28.866Z,11.45
2022-12-14T17:19:56.653Z,11.75
2022-12-14T17:22:28.110Z,11.00
2022-12-14T17:24:55.869Z,10.50
2022-12-14T17:27:26.594Z,11.32
2022-12-14T17:29:57.158Z,10.48
2022-12-14T17:32:30.587Z,9.57
2022-12-14T17:34:59.308Z,10.38
2022-12-14T17:37:34.084Z,10.27
2022-12-14T17:40:03.972Z,9.85
2022-12-14T17:42:31.741Z,9.85
2022-12-14T17:45:01.115Z,9.73
2022-12-14T17:47:30.574Z,10.70
2022-12-14T17:49:58.297Z,10.32
2022-12-14T17:52:30.198Z,10.15
2022-12-14T17:54:57.888Z,9.98
2022-12-14T17:57:27.121Z,9.15
2022-12-14T18:00:15.153Z,9.82
2022-12-14T18:02:45.886Z,10.05
2022-12-14T18:05:19.194Z,9.80
2022-12-14T18:07:46.966Z,9.88
2022-12-14T18:10:18.513Z,9.63
2022-12-14T18:12:46.371Z,9.25
2022-12-14T18:15:18.604Z,9.45
2022-12-14T18:17:49.280Z,9.63
2022-12-14T18:20:17.672Z,9.50
2022-12-14T18:22:49.628Z,9.20
2022-12-14T18:25:31.731Z,8.90
2022-12-14T18:28:00.591Z,9.20
2022-12-14T18:30:33.579Z,9.68
2022-12-14T18:33:06.015Z,10.32
2022-12-14T18:35:36.141Z,10.07
2022-12-14T18:38:03.908Z,10.35
2022-12-14T18:40:31.800Z,11.13
2022-12-14T18:42:59.464Z,9.90
2022-12-14T18:45:28.923Z,9.93
2022-12-14T18:47:56.617Z,10.73
2022-12-14T18:50:25.949Z,10.10
2022-12-14T18:52:55.513Z,10.48
2022-12-14T18:55:24.885Z,9.75
2022-12-14T18:57:54.586Z,10.10
2022-12-14T19:00:24.406Z,10.05
2022-12-14T19:02:53.086Z,10.88
2022-12-14T19:05:25.892Z,10.25
2022-12-14T19:07:57.736Z,10.30
2022-12-14T19:10:28.325Z,11.10
2022-12-14T19:12:57.097Z,10.35
2022-12-14T19:15:27.722Z,10.63
2022-12-14T19:17:56.226Z,11.35
2022-12-14T19:20:25.609Z,11.10
2022-12-14T19:22:53.491Z,10.85
2022-12-14T19:25:24.421Z,12.15
2022-12-14T19:30:41.389Z,17.48
2022-12-14T19:33:10.641Z,16.50
2022-12-14T19:35:40.626Z,16.98
2022-12-14T19:38:08.315Z,15.88
2022-12-14T19:40:37.382Z,15.63
2022-12-14T19:43:05.106Z,15.90
2022-12-14T19:45:32.849Z,14.90
2022-12-14T19:48:00.654Z,16.65
2022-12-14T19:50:28.448Z,16.00
2022-12-14T19:52:56.171Z,16.00
2022-12-14T19:55:23.918Z,16.98
2022-12-14T19:57:52.947Z,16.58
2022-12-14T20:00:20.742Z,14.93
2022-12-14T20:02:49.496Z,16.83
2022-12-14T20:05:18.054Z,14.43
2022-12-14T20:07:45.771Z,15.45
2022-12-14T20:10:13.466Z,14.00
2022-12-14T20:12:41.174Z,14.80
2022-12-14T20:15:11.011Z,13.82
2022-12-14T20:17:38.817Z,13.60
2022-12-14T20:20:07.390Z,13.57
2022-12-14T20:22:35.098Z,13.48
2022-12-14T20:25:02.868Z,13.23
2022-12-14T20:27:30.528Z,13.40
2022-12-14T20:29:58.676Z,11.32
2022-12-14T20:32:27.743Z,13.02
2022-12-14T20:34:55.735Z,11.35
2022-12-14T20:37:23.418Z,12.55
2022-12-14T20:39:51.060Z,11.63
2022-12-14T20:42:18.747Z,12.65
2022-12-14T20:44:49.534Z,11.50
2022-12-14T20:47:17.416Z,12.07
2022-12-14T20:49:46.566Z,11.23
2022-12-14T20:52:14.385Z,10.80
2022-12-14T20:54:42.089Z,11.10
2022-12-14T20:57:09.765Z,13.55
2022-12-14T20:59:37.525Z,12.02
2022-12-14T21:02:05.419Z,11.38
2022-12-14T21:04:33.253Z,11.90
2022-12-14T21:07:02.335Z,12.50
2022-12-14T21:09:30.031Z,11.50
2022-12-14T21:12:15.365Z,11.27
2022-12-14T21:14:43.581Z,12.30
2022-12-14T21:17:11.529Z,11.73
2022-12-14T21:19:39.227Z,11.00
2022-12-14T21:22:11.947Z,12.35
2022-12-14T21:27:30.201Z,12.40
2022-12-14T21:29:57.869Z,12.13
2022-12-14T21:32:25.638Z,12.25
2022-12-14T21:34:53.688Z,12.77
2022-12-14T21:37:23.267Z,11.73
2022-12-14T21:39:55.207Z,12.25
2022-12-14T21:42:23.055Z,12.30
2022-12-14T21:44:52.034Z,13.27
2022-12-14T21:47:22.077Z,12.77
2022-12-14T21:49:50.152Z,12.70
2022-12-14T21:52:20.605Z,11.55
2022-12-14T21:54:49.716Z,11.90
2022-12-14T21:57:36.594Z,13.32
2022-12-14T22:00:05.644Z,13.18
2022-12-14T22:02:33.569Z,12.20
2022-12-14T22:05:01.329Z,12.35
2022-12-14T22:07:32.559Z,13.75
2022-12-14T22:10:02.140Z,13.15
2022-12-14T22:12:30.020Z,13.05
2022-12-14T22:14:57.752Z,13.77
2022-12-14T22:17:25.409Z,12.13
2022-12-14T22:19:54.998Z,11.35
2022-12-14T22:22:22.722Z,13.68
2022-12-14T22:24:51.160Z,12.90
2022-12-14T22:27:21.205Z,13.65
2022-12-14T22:29:48.882Z,12.15
2022-12-14T22:32:16.649Z,13.18
2022-12-14T22:34:44.924Z,12.20
2022-12-14T22:37:16.506Z,13.00
2022-12-14T22:39:44.210Z,12.43
2022-12-14T22:42:15.533Z,12.93
2022-12-14T22:44:45.050Z,13.23
2022-12-14T22:47:12.846Z,13.95
2022-12-14T22:49:40.652Z,12.98
2022-12-14T22:52:08.361Z,13.18
2022-12-14T22:54:38.440Z,12.95
2022-12-14T22:57:11.073Z,12.40
2022-12-14T22:59:42.717Z,13.13
2022-12-14T23:02:12.086Z,12.98
2022-12-14T23:04:40.158Z,12.82
2022-12-14T23:07:08.185Z,12.27
2022-12-14T23:09:53.400Z,13.35
2022-12-14T23:12:38.789Z,13.43
2022-12-14T23:15:25.095Z,13.07
2022-12-14T23:18:18.766Z,13.88
2022-12-14T23:21:04.350Z,12.82
2022-12-14T23:23:49.817Z,13.23
2022-12-14T23:26:35.026Z,14.38
2022-12-14T23:29:20.534Z,15.05
2022-12-14T23:32:05.804Z,13.82
2022-12-14T23:34:52.465Z,14.10
2022-12-14T23:37:37.994Z,13.23
2022-12-14T23:40:23.831Z,13.75
2022-12-14T23:43:09.504Z,13.05
2022-12-14T23:45:54.940Z,13.57
2022-12-14T23:48:40.254Z,12.45
2022-12-14T23:51:27.122Z,13.32
2022-12-14T23:54:12.454Z,13.88
2022-12-14T23:56:57.958Z,14.57
2022-12-14T23:59:43.342Z,13.45
